Time;durP1;ratioP1;P1;durP2;ratioP2;P2;SDS_P1;SDS_P2;PMS_P1;PMS_P2;Temp;Humidity;BMP_temperature;BMP_pressure;BME280_temperature;BME280_humidity;BME280_pressure;Samples;Min_cycle;Max_cycle;Signal;HPM_P1;HPM_P2
2022/10/26 00:00:42;;;;;;;5.30;1.20;;;;;;;-145.69;100.00;52527.56;5156046;27;20196;-83
2022/10/26 00:03:08;;;;;;;3.97;1.08;;;;;;;-145.69;100.00;52468.16;5156182;27;20203;-83
2022/10/26 00:05:35;;;;;;;2.42;0.93;;;;;;;-145.69;100.00;52480.03;5156499;27;20206;-83
2022/10/26 00:08:02;;;;;;;1.80;1.10;;;;;;;-145.69;100.00;52472.13;5156154;27;20208;-83
2022/10/26 00:10:28;;;;;;;4.18;1.00;;;;;;;-145.69;100.00;52452.31;5149595;27;20279;-83
2022/10/26 00:12:55;;;;;;;1.10;0.98;;;;;;;-145.69;100.00;52428.53;5135511;27;20192;-83
2022/10/26 00:15:23;;;;;;;1.92;1.00;;;;;;;-145.69;100.00;52460.22;5135306;27;20571;-83
2022/10/26 00:17:51;;;;;;;3.35;1.05;;;;;;;-145.69;100.00;52487.97;5133829;27;20212;-83
2022/10/26 00:20:17;;;;;;;3.30;0.70;;;;;;;-145.69;100.00;52462.22;5135522;27;20197;-83
2022/10/26 00:22:43;;;;;;;1.80;0.93;;;;;;;-145.69;100.00;52452.31;5135305;27;20200;-84
2022/10/26 00:25:10;;;;;;;2.95;1.40;;;;;;;-145.69;100.00;52468.16;5135315;27;20208;-83
2022/10/26 00:27:37;;;;;;;2.78;0.80;;;;;;;-145.69;100.00;52472.13;5135101;27;20201;-84
2022/10/26 00:30:05;;;;;;;8.43;1.20;;;;;;;-145.69;100.00;52464.19;5134919;27;20768;-84
2022/10/26 00:32:33;;;;;;;4.95;1.40;;;;;;;-145.69;100.00;52491.91;5134734;27;20857;-82
2022/10/26 00:35:00;;;;;;;4.45;1.23;;;;;;;-145.69;100.00;52460.22;5134948;27;20657;-83
2022/10/26 00:37:27;;;;;;;3.10;1.30;;;;;;;-145.69;100.00;52476.06;5134772;27;20224;-83
2022/10/26 00:39:53;;;;;;;4.45;1.38;;;;;;;-145.69;100.00;52476.06;5136152;27;20201;-83
2022/10/26 00:42:23;;;;;;;2.15;1.00;;;;;;;-145.69;100.00;52480.03;5156390;27;20204;-83
2022/10/26 00:45:00;;;;;;;2.40;1.20;;;;;;;-145.69;100.00;52438.44;5155868;27;20196;-83
2022/10/26 00:47:42;;;;;;;6.68;1.15;;;;;;;-145.69;100.00;52464.19;5156092;27;20203;-83
2022/10/26 00:50:15;;;;;;;3.28;1.10;;;;;;;-145.69;100.00;52472.13;5155607;27;20560;-83
2022/10/26 00:52:42;;;;;;;2.03;1.00;;;;;;;-145.69;100.00;52485.97;5156856;27;20192;-84
2022/10/26 00:55:09;;;;;;;10.18;1.33;;;;;;;-145.69;100.00;52482.00;5157039;27;20202;-84
2022/10/26 00:57:37;;;;;;;5.53;1.17;;;;;;;-145.69;100.00;52462.22;5138660;27;20227;-83
2022/10/26 01:00:05;;;;;;;3.67;0.93;;;;;;;-145.69;100.00;52499.84;5134964;27;20204;-84
2022/10/26 01:02:31;;;;;;;4.43;1.45;;;;;;;-145.69;100.00;52497.84;5135285;27;20646;-84
2022/10/26 01:05:02;;;;;;;2.35;0.90;;;;;;;-145.69;100.00;52474.09;5134723;27;20197;-84
2022/10/26 01:07:29;;;;;;;2.75;1.13;;;;;;;-145.69;100.00;52460.22;5135164;27;20201;-84
2022/10/26 01:09:56;;;;;;;3.60;0.98;;;;;;;-145.69;100.00;52472.13;5138587;27;20197;-83
2022/10/26 01:12:23;;;;;;;5.57;1.30;;;;;;;-145.69;100.00;52487.97;5153460;27;20203;-83
2022/10/26 01:14:49;;;;;;;3.17;0.82;;;;;;;-145.69;100.00;52460.22;5147371;27;20192;-83
2022/10/26 01:17:43;;;;;;;3.08;1.10;;;;;;;-145.69;100.00;52497.84;5134277;27;20224;-84
2022/10/26 01:20:38;;;;;;;3.85;1.10;;;;;;;-145.69;100.00;52489.94;5134097;27;20233;-84
2022/10/26 01:23:10;;;;;;;3.35;1.17;;;;;;;-145.69;100.00;52428.53;5134329;27;20215;-83
2022/10/26 01:26:10;;;;;;;3.60;1.17;;;;;;;-145.69;100.00;52511.72;5134024;27;20205;-83
2022/10/26 01:28:58;;;;;;;6.18;1.33;;;;;;;-145.69;100.00;52491.91;5133652;27;20200;-83
2022/10/26 01:31:32;;;;;;;4.55;1.45;;;;;;;-145.69;100.00;52515.69;5133987;27;20220;-84
2022/10/26 01:34:03;;;;;;;3.70;1.02;;;;;;;-145.69;100.00;52485.97;5113252;28;20702;-84
2022/10/26 01:36:34;;;;;;;2.72;1.00;;;;;;;-145.69;100.00;52450.31;5113499;28;20237;-83
2022/10/26 01:39:08;;;;;;;2.78;0.77;;;;;;;-145.69;100.00;52448.34;5113936;28;20208;-84
2022/10/26 01:41:39;;;;;;;3.45;1.45;;;;;;;-145.69;100.00;52501.81;5135143;27;20191;-83
2022/10/26 01:44:10;;;;;;;3.72;0.98;;;;;;;-145.69;100.00;52464.19;5134022;27;20200;-84
2022/10/26 01:46:41;;;;;;;2.88;0.90;;;;;;;-145.69;100.00;52513.69;5133546;28;20201;-83
2022/10/26 01:49:12;;;;;;;6.05;1.10;;;;;;;-145.69;100.00;52491.91;5116244;28;20213;-83
2022/10/26 01:51:40;;;;;;;6.45;1.00;;;;;;;-145.69;100.00;52482.00;5114864;28;20201;-83
2022/10/26 01:54:06;;;;;;;3.13;1.02;;;;;;;-145.69;100.00;52503.81;5114029;28;20201;-84
2022/10/26 01:56:38;;;;;;;6.43;1.05;;;;;;;-145.69;100.00;52503.81;5113586;28;20221;-84
2022/10/26 01:59:19;;;;;;;4.97;1.08;;;;;;;-145.69;100.00;52464.19;5113308;28;20674;-84
2022/10/26 02:02:15;;;;;;;2.58;1.00;;;;;;;-145.69;100.00;52499.84;5113220;28;20210;-84
2022/10/26 02:04:54;;;;;;;7.85;1.45;;;;;;;-145.69;100.00;52503.81;5099589;28;20201;-84
2022/10/26 02:07:28;;;;;;;3.97;1.20;;;;;;;-145.69;100.00;52491.91;5113281;28;20205;-83
2022/10/26 02:10:06;;;;;;;5.05;1.23;;;;;;;-145.69;100.00;52525.59;5125922;27;20645;-83
2022/10/26 02:12:41;;;;;;;3.03;1.13;;;;;;;-145.69;100.00;52493.91;5154521;27;20210;-83
2022/10/26 02:15:15;;;;;;;9.00;1.17;;;;;;;-145.69;100.00;52507.75;5154551;27;20658;-83
2022/10/26 02:17:49;;;;;;;2.63;1.00;;;;;;;-145.69;100.00;52495.88;5154969;27;20227;-83
2022/10/26 02:20:21;;;;;;;2.97;1.25;;;;;;;-145.69;100.00;52539.44;5154604;27;20202;-83
2022/10/26 02:22:50;;;;;;;5.35;1.30;;;;;;;-145.69;100.00;52507.75;5154303;27;20223;-83
2022/10/26 02:25:20;;;;;;;3.85;1.00;;;;;;;-145.69;100.00;52513.69;5154267;27;20196;-82
2022/10/26 02:27:51;;;;;;;10.68;1.13;;;;;;;-145.69;100.00;52487.97;5154361;27;20203;-83
2022/10/26 02:30:18;;;;;;;7.47;0.90;;;;;;;-145.69;100.00;52476.06;5154608;27;20219;-84
2022/10/26 02:32:50;;;;;;;4.28;1.33;;;;;;;-145.69;100.00;52507.75;5154069;27;20698;-83
2022/10/26 02:35:19;;;;;;;8.55;1.13;;;;;;;-145.69;100.00;52493.91;5153850;27;20196;-83
2022/10/26 02:37:47;;;;;;;5.10;1.05;;;;;;;-145.69;100.00;52487.97;5154208;27;20246;-83
2022/10/26 02:40:18;;;;;;;3.47;1.10;;;;;;;-145.69;100.00;52499.84;5154121;27;20203;-83
2022/10/26 02:42:46;;;;;;;5.60;1.00;;;;;;;-145.69;100.00;52497.84;5157896;27;20199;-83
2022/10/26 02:45:18;;;;;;;2.50;0.75;;;;;;;-145.69;100.00;52495.88;5157606;27;20200;-82
2022/10/26 02:47:47;;;;;;;2.70;0.90;;;;;;;-145.69;100.00;52480.03;5157870;27;20208;-83
2022/10/26 02:50:13;;;;;;;5.03;1.10;;;;;;;-145.69;100.00;52527.56;5146617;27;20579;-83
2022/10/26 02:52:46;;;;;;;2.70;0.95;;;;;;;-145.69;100.00;52521.63;5136674;27;20200;-83
2022/10/26 02:55:20;;;;;;;3.10;0.93;;;;;;;-145.69;100.00;52519.63;5136902;27;20200;-83
2022/10/26 02:57:50;;;;;;;2.70;0.95;;;;;;;-145.69;100.00;52527.56;5137035;27;20231;-83
2022/10/26 03:00:18;;;;;;;8.48;1.08;;;;;;;-145.69;100.00;52472.13;5136364;27;20201;-83
2022/10/26 03:02:52;;;;;;;2.07;0.90;;;;;;;-145.69;100.00;52495.88;5136006;27;20433;-83
2022/10/26 03:05:21;;;;;;;9.60;1.30;;;;;;;-145.69;100.00;52503.81;5136682;27;20196;-83
2022/10/26 03:07:47;;;;;;;4.60;1.10;;;;;;;-145.69;100.00;52452.31;5136370;27;20204;-83
2022/10/26 03:10:14;;;;;;;5.75;1.20;;;;;;;-145.69;100.00;52507.75;5147365;27;20196;-82
2022/10/26 03:12:41;;;;;;;4.15;1.08;;;;;;;-145.69;100.00;52495.88;5157079;27;20688;-83
2022/10/26 03:15:08;;;;;;;4.47;1.05;;;;;;;-145.69;100.00;52507.75;5157459;27;20200;-83
2022/10/26 03:17:35;;;;;;;4.57;1.20;;;;;;;-145.69;100.00;52501.81;5156657;27;20689;-83
2022/10/26 03:20:03;;;;;;;6.68;1.00;;;;;;;-145.69;100.00;52487.97;5157344;27;20207;-84
2022/10/26 03:22:30;;;;;;;7.38;1.00;;;;;;;-145.69;100.00;52478.06;5157244;27;20196;-84
2022/10/26 03:24:56;;;;;;;4.70;1.25;;;;;;;-145.69;100.00;52493.91;5157428;27;20203;-84
2022/10/26 03:27:23;;;;;;;4.78;1.27;;;;;;;-145.69;100.00;52484.00;5156913;27;20196;-84
2022/10/26 03:29:49;;;;;;;8.00;1.05;;;;;;;-145.69;100.00;52484.00;5156796;27;20207;-83
2022/10/26 03:32:16;;;;;;;9.35;1.20;;;;;;;-145.69;100.00;52505.78;5156949;27;20228;-84
2022/10/26 03:34:42;;;;;;;2.80;1.10;;;;;;;-145.69;100.00;52487.97;5157078;27;20598;-85
2022/10/26 03:37:10;;;;;;;6.28;1.33;;;;;;;-145.69;100.00;52493.91;5157399;27;20228;-84
2022/10/26 03:39:37;;;;;;;4.03;0.90;;;;;;;-145.69;100.00;52511.72;5157293;27;20200;-84
2022/10/26 03:42:03;;;;;;;6.63;1.60;;;;;;;-145.69;100.00;52476.06;5147003;27;20682;-85
2022/10/26 03:44:30;;;;;;;5.65;1.30;;;;;;;-145.69;100.00;52474.09;5136037;27;20197;-84
2022/10/26 03:46:56;;;;;;;5.90;1.60;;;;;;;-145.69;100.00;52480.03;5136197;27;20570;-83
2022/10/26 03:49:23;;;;;;;4.20;1.38;;;;;;;-145.69;100.00;52513.69;5136302;27;20662;-84
2022/10/26 03:51:49;;;;;;;8.43;1.42;;;;;;;-145.69;100.00;52505.78;5135998;27;20208;-84
2022/10/26 03:54:18;;;;;;;6.50;1.40;;;;;;;-145.69;100.00;52511.72;5136890;27;20627;-84
2022/10/26 03:56:44;;;;;;;6.30;1.70;;;;;;;-145.69;100.00;52499.84;5136983;27;20230;-84
2022/10/26 03:59:11;;;;;;;4.80;1.40;;;;;;;-145.69;100.00;52507.75;5138922;27;20429;-84
2022/10/26 04:01:37;;;;;;;2.30;1.35;;;;;;;-145.69;100.00;52484.00;5137314;27;20282;-83
2022/10/26 04:04:04;;;;;;;6.47;1.73;;;;;;;-145.69;100.00;52521.63;5137119;27;20204;-84
2022/10/26 04:06:30;;;;;;;6.45;1.65;;;;;;;-145.69;100.00;52533.50;5136421;27;20208;-84
2022/10/26 04:09:01;;;;;;;8.85;1.38;;;;;;;-145.69;100.00;52523.59;5138610;27;20204;-83
2022/10/26 04:11:29;;;;;;;9.82;1.55;;;;;;;-145.69;100.00;52472.13;5156599;27;20200;-83
2022/10/26 04:13:58;;;;;;;6.75;1.35;;;;;;;-145.69;100.00;52499.84;5156271;27;20203;-83
2022/10/26 04:16:25;;;;;;;6.38;1.65;;;;;;;-145.69;100.00;52499.84;5156151;27;20202;-84
2022/10/26 04:18:51;;;;;;;7.68;1.73;;;;;;;-145.69;100.00;52499.84;5156257;27;20682;-83
2022/10/26 04:21:17;;;;;;;10.43;1.83;;;;;;;-145.69;100.00;52513.69;5155995;27;20200;-84
2022/10/26 04:23:44;;;;;;;12.60;1.83;;;;;;;-145.69;100.00;52507.75;5155694;27;20206;-83
2022/10/26 04:26:10;;;;;;;6.47;1.80;;;;;;;-145.69;100.00;52515.69;5158513;27;20558;-84
2022/10/26 04:28:38;;;;;;;4.07;1.40;;;;;;;-145.69;100.00;52523.59;5159735;27;20196;-83
2022/10/26 04:31:05;;;;;;;10.55;1.70;;;;;;;-145.69;100.00;52480.03;5158455;27;20196;-84
2022/10/26 04:33:31;;;;;;;4.40;1.60;;;;;;;-145.69;100.00;52515.69;5158081;27;20224;-83
2022/10/26 04:35:59;;;;;;;8.25;1.58;;;;;;;-145.69;100.00;52521.63;5156288;27;20203;-83
2022/10/26 04:38:25;;;;;;;9.30;2.00;;;;;;;-145.69;100.00;52507.75;5157690;27;20231;-83
2022/10/26 04:40:52;;;;;;;5.05;1.55;;;;;;;-145.69;100.00;52495.88;5137075;27;20203;-84
2022/10/26 04:43:18;;;;;;;9.50;1.42;;;;;;;-145.69;100.00;52517.66;5134853;27;20208;-84
2022/10/26 04:45:46;;;;;;;6.80;1.90;;;;;;;-145.69;100.00;52503.81;5134133;27;20444;-83
2022/10/26 04:48:13;;;;;;;3.15;1.90;;;;;;;-145.69;100.00;52480.03;5134377;27;20196;-83
2022/10/26 04:50:41;;;;;;;7.78;1.80;;;;;;;-145.69;100.00;52509.75;5134741;27;20201;-84
2022/10/26 04:53:09;;;;;;;8.60;1.88;;;;;;;-145.69;100.00;52515.69;5137344;27;20208;-83
2022/10/26 04:55:36;;;;;;;3.97;1.30;;;;;;;-145.69;100.00;52519.63;5136776;27;20227;-83
2022/10/26 04:58:02;;;;;;;3.40;1.48;;;;;;;-145.69;100.00;52482.00;5135499;27;20232;-83
2022/10/26 05:00:31;;;;;;;7.35;1.40;;;;;;;-145.69;100.00;52489.94;5131561;27;20189;-85
2022/10/26 05:03:02;;;;;;;7.18;1.50;;;;;;;-145.69;100.00;52462.22;5134513;27;20198;-82
2022/10/26 05:05:31;;;;;;;7.13;1.85;;;;;;;-145.69;100.00;52487.97;5135314;27;20192;-83
2022/10/26 05:07:58;;;;;;;11.15;1.70;;;;;;;-145.69;100.00;52511.72;5134796;27;20529;-82
2022/10/26 05:10:25;;;;;;;6.30;1.25;;;;;;;-145.69;100.00;52472.13;5134437;27;20283;-83
2022/10/26 05:12:52;;;;;;;9.98;1.48;;;;;;;-145.69;100.00;52482.00;5134542;27;20200;-83
2022/10/26 05:15:18;;;;;;;6.75;1.83;;;;;;;-145.69;100.00;52460.22;5134308;27;20196;-83
2022/10/26 05:17:45;;;;;;;3.10;1.50;;;;;;;-145.69;100.00;52493.91;5134285;27;20225;-83
2022/10/26 05:20:13;;;;;;;8.23;1.58;;;;;;;-145.69;100.00;52462.22;5134183;27;20197;-83
2022/10/26 05:22:39;;;;;;;4.93;1.42;;;;;;;-145.69;100.00;52468.16;5134508;27;20245;-83
2022/10/26 05:25:07;;;;;;;8.68;1.67;;;;;;;-145.69;100.00;52493.91;5134362;27;20201;-83
2022/10/26 05:27:33;;;;;;;11.07;2.45;;;;;;;-145.69;100.00;52422.59;5134307;27;20211;-82
2022/10/26 05:30:00;;;;;;;7.20;1.77;;;;;;;-145.69;100.00;52489.94;5134003;27;20196;-82
2022/10/26 05:32:26;;;;;;;5.70;1.58;;;;;;;-145.69;100.00;52452.31;5133398;27;20231;-82
2022/10/26 05:34:53;;;;;;;3.95;1.40;;;;;;;-145.69;100.00;52480.03;5134077;27;20575;-82
2022/10/26 05:37:20;;;;;;;4.80;1.65;;;;;;;-145.69;100.00;52484.00;5134307;28;20228;-83
2022/10/26 05:39:47;;;;;;;6.45;1.70;;;;;;;-145.69;100.00;52472.13;5134182;27;20193;-82
2022/10/26 05:42:13;;;;;;;5.18;1.63;;;;;;;-145.69;100.00;52491.91;5133957;28;20204;-84
2022/10/26 05:44:40;;;;;;;7.55;2.58;;;;;;;-145.69;100.00;52509.75;5134036;27;20540;-83
2022/10/26 05:47:06;;;;;;;4.15;1.52;;;;;;;-145.69;100.00;52482.00;5134181;28;20204;-83
2022/10/26 05:49:33;;;;;;;4.68;1.90;;;;;;;-145.69;100.00;52507.75;5134146;27;20201;-84
2022/10/26 05:51:59;;;;;;;10.10;1.70;;;;;;;-145.69;100.00;52499.84;5134045;27;20204;-82
2022/10/26 05:54:27;;;;;;;4.05;1.80;;;;;;;-145.69;100.00;52468.16;5133871;28;20201;-83
2022/10/26 05:56:54;;;;;;;4.03;1.70;;;;;;;-145.69;100.00;52503.81;5133772;28;20200;-82
2022/10/26 05:59:21;;;;;;;11.77;1.95;;;;;;;-145.69;100.00;52474.09;5133639;27;20224;-82
2022/10/26 06:02:02;;;;;;;9.35;2.00;;;;;;;-145.69;100.00;52466.16;5133766;28;20196;-82
2022/10/26 06:04:37;;;;;;;17.88;3.10;;;;;;;-145.69;100.00;52503.81;5133373;28;20201;-82
2022/10/26 06:07:09;;;;;;;10.65;1.90;;;;;;;-145.69;100.00;52482.00;5133700;28;20207;-83
2022/10/26 06:09:37;;;;;;;7.15;2.10;;;;;;;-145.69;100.00;52505.78;5149525;27;20196;-83
2022/10/26 06:12:06;;;;;;;8.75;2.53;;;;;;;-145.69;100.00;52474.09;5153988;27;20196;-83
2022/10/26 06:14:33;;;;;;;7.80;1.95;;;;;;;-145.69;100.00;52491.91;5154493;27;20200;-83
2022/10/26 06:17:10;;;;;;;7.78;2.20;;;;;;;-145.69;100.00;52450.31;5157870;27;20196;-83
2022/10/26 06:19:56;;;;;;;7.75;1.83;;;;;;;-145.69;100.00;52507.75;5157940;27;20200;-83
2022/10/26 06:22:38;;;;;;;3.83;1.77;;;;;;;-145.69;100.00;52480.03;5158340;27;20535;-83
2022/10/26 06:25:17;;;;;;;10.63;1.70;;;;;;;-145.69;100.00;52462.22;5158445;27;20207;-84
2022/10/26 06:27:50;;;;;;;10.65;1.80;;;;;;;-145.69;100.00;52468.16;5158516;27;20658;-83
2022/10/26 06:30:22;;;;;;;6.65;2.00;;;;;;;-145.69;100.00;52489.94;5158249;27;20207;-83
2022/10/26 06:32:52;;;;;;;5.38;1.58;;;;;;;-145.69;100.00;52482.00;5158155;27;20249;-83
2022/10/26 06:35:31;;;;;;;10.52;1.52;;;;;;;-145.69;100.00;52472.13;5157926;27;20558;-83
2022/10/26 06:38:02;;;;;;;4.88;1.60;;;;;;;-145.69;100.00;52519.63;5157752;27;20216;-83
2022/10/26 06:40:32;;;;;;;8.32;1.98;;;;;;;-145.69;100.00;52495.88;5158255;27;20195;-83
2022/10/26 06:42:59;;;;;;;8.77;2.00;;;;;;;-145.69;100.00;52484.00;5148930;27;20192;-82
2022/10/26 06:45:26;;;;;;;6.43;1.80;;;;;;;-145.69;100.00;52470.13;5152856;27;20220;-83
2022/10/26 06:47:57;;;;;;;6.38;1.60;;;;;;;-145.69;100.00;52489.94;5158002;27;20203;-82
2022/10/26 06:50:32;;;;;;;5.70;1.80;;;;;;;-145.69;100.00;52466.16;5157877;27;20210;-82
2022/10/26 06:53:11;;;;;;;7.85;1.90;;;;;;;-145.69;100.00;52472.13;5157627;27;20199;-83
2022/10/26 06:55:42;;;;;;;6.40;1.70;;;;;;;-145.69;100.00;52537.47;5157498;27;20199;-82
2022/10/26 06:58:13;;;;;;;5.28;1.70;;;;;;;-145.69;100.00;52468.16;5157892;27;20224;-83
2022/10/26 07:00:40;;;;;;;9.23;2.60;;;;;;;-145.69;100.00;52499.84;5157783;27;20207;-83
2022/10/26 07:03:07;;;;;;;7.30;1.80;;;;;;;-145.69;100.00;52491.91;5157146;27;20203;-82
2022/10/26 07:05:33;;;;;;;4.93;1.90;;;;;;;-145.69;100.00;52470.13;5144644;27;20193;-83
2022/10/26 07:08:00;;;;;;;5.10;1.75;;;;;;;-145.69;100.00;52460.22;5116285;28;20202;-82
2022/10/26 07:10:26;;;;;;;8.18;1.88;;;;;;;-145.69;100.00;52468.16;5116072;28;20208;-83
2022/10/26 07:12:54;;;;;;;7.25;2.05;;;;;;;-145.69;100.00;52485.97;5116293;28;20202;-83
2022/10/26 07:15:21;;;;;;;12.82;1.85;;;;;;;-145.69;100.00;52474.09;5145937;27;20196;-84
2022/10/26 07:17:49;;;;;;;8.60;1.98;;;;;;;-145.69;100.00;52468.16;5156728;27;20212;-83
2022/10/26 07:20:16;;;;;;;7.85;2.10;;;;;;;-145.69;100.00;52480.03;5157292;27;20196;-82
2022/10/26 07:22:43;;;;;;;8.57;2.30;;;;;;;-145.69;100.00;52454.28;5157097;27;20192;-84
2022/10/26 07:25:11;;;;;;;7.40;1.98;;;;;;;-145.69;100.00;52456.28;5156708;27;20200;-83
2022/10/26 07:27:37;;;;;;;9.77;2.40;;;;;;;-145.69;100.00;52482.00;5149141;27;20468;-84
2022/10/26 07:30:06;;;;;;;8.95;2.30;;;;;;;-145.69;100.00;52468.16;5135819;27;20540;-83
2022/10/26 07:32:33;;;;;;;9.05;1.90;;;;;;;-145.69;100.00;52456.28;5136202;27;20224;-83
2022/10/26 07:34:59;;;;;;;11.00;2.50;;;;;;;-145.69;100.00;52480.03;5135961;27;20425;-83
2022/10/26 07:37:26;;;;;;;7.63;2.40;;;;;;;-145.69;100.00;52466.16;5135950;27;20208;-84
2022/10/26 07:39:52;;;;;;;13.07;2.53;;;;;;;-145.69;100.00;52480.03;5136012;27;20221;-83
2022/10/26 07:42:19;;;;;;;7.40;1.65;;;;;;;-145.69;100.00;52484.00;5135821;27;20207;-83
2022/10/26 07:44:45;;;;;;;9.07;1.80;;;;;;;-145.69;100.00;52484.00;5135917;27;20820;-84
2022/10/26 07:47:13;;;;;;;11.77;2.13;;;;;;;-145.69;100.00;52448.34;5135626;27;20655;-84
2022/10/26 07:49:40;;;;;;;8.63;1.73;;;;;;;-145.69;100.00;52464.19;5135484;27;20654;-84
2022/10/26 07:52:07;;;;;;;6.38;2.08;;;;;;;-145.69;100.00;52408.75;5135406;27;20208;-84
2022/10/26 07:54:33;;;;;;;10.27;2.10;;;;;;;-145.69;100.00;52462.22;5155403;27;20193;-84
2022/10/26 07:57:00;;;;;;;7.32;1.75;;;;;;;-145.69;100.00;52412.69;5156432;27;20203;-83
2022/10/26 07:59:26;;;;;;;12.48;1.98;;;;;;;-145.69;100.00;52484.00;5156439;27;20235;-82
2022/10/26 08:01:53;;;;;;;8.18;2.03;;;;;;;-145.69;100.00;52452.31;5155297;27;20196;-84
2022/10/26 08:04:21;;;;;;;15.15;2.67;;;;;;;-145.69;100.00;52424.59;5155491;27;20196;-83
2022/10/26 08:06:47;;;;;;;6.60;2.40;;;;;;;-145.69;100.00;52412.69;5156286;27;20199;-83
2022/10/26 08:09:14;;;;;;;12.00;2.75;;;;;;;-145.69;100.00;52426.56;5156330;27;20207;-84
2022/10/26 08:11:40;;;;;;;11.73;2.28;;;;;;;-145.69;100.00;52404.78;5156071;27;20673;-83
2022/10/26 08:14:07;;;;;;;8.80;2.33;;;;;;;-145.69;100.00;52410.72;5156057;27;20203;-84
2022/10/26 08:16:34;;;;;;;8.38;2.00;;;;;;;-145.69;100.00;52406.75;5155962;27;20207;-83
2022/10/26 08:19:00;;;;;;;12.38;1.63;;;;;;;-145.69;100.00;52386.97;5156075;27;20223;-82
2022/10/26 08:21:28;;;;;;;11.02;2.03;;;;;;;-145.69;100.00;52394.88;5137440;27;20197;-82
2022/10/26 08:23:54;;;;;;;9.68;1.70;;;;;;;-145.69;100.00;52384.97;5114462;27;20686;-82
2022/10/26 08:26:24;;;;;;;11.02;2.30;;;;;;;-145.69;100.00;52384.97;5114332;28;20198;-82
2022/10/26 08:28:51;;;;;;;8.68;2.20;;;;;;;-145.69;100.00;52367.16;5114595;28;20615;-81
2022/10/26 08:31:22;;;;;;;13.48;2.22;;;;;;;-145.69;100.00;52402.78;5114440;28;20559;-80
2022/10/26 08:33:51;;;;;;;8.23;2.08;;;;;;;-145.69;100.00;52353.28;5122647;27;20621;-82
2022/10/26 08:36:23;;;;;;;6.22;1.60;;;;;;;-145.69;100.00;52381.00;5134758;27;20201;-82
2022/10/26 08:38:51;;;;;;;12.77;2.60;;;;;;;-145.69;100.00;52392.91;5138186;27;20251;-81
2022/10/26 08:41:24;;;;;;;9.95;1.80;;;;;;;-145.69;100.00;52396.84;5137013;27;20200;-80
2022/10/26 08:43:56;;;;;;;10.65;2.50;;;;;;;-145.69;100.00;52388.94;5137424;27;20208;-80
2022/10/26 08:46:28;;;;;;;11.55;2.03;;;;;;;-145.69;100.00;52377.06;5134906;27;20528;-82
2022/10/26 08:48:59;;;;;;;10.38;2.13;;;;;;;-145.69;100.00;52388.94;5134797;27;20562;-83
2022/10/26 08:51:29;;;;;;;6.13;1.67;;;;;;;-145.69;100.00;52394.88;5135286;27;20220;-82
2022/10/26 08:54:01;;;;;;;9.43;1.83;;;;;;;-145.69;100.00;52384.97;5135118;27;20196;-82
2022/10/26 08:56:34;;;;;;;6.47;2.03;;;;;;;-145.69;100.00;52384.97;5135618;27;20200;-81
2022/10/26 08:59:06;;;;;;;7.57;1.95;;;;;;;-145.69;100.00;52396.84;5134912;27;20328;-81
2022/10/26 09:01:34;;;;;;;8.65;1.80;;;;;;;-145.69;100.00;52386.97;5136173;27;20290;-81
2022/10/26 09:04:02;;;;;;;6.15;1.67;;;;;;;-145.69;100.00;52402.78;5140919;27;20297;-81
2022/10/26 09:06:35;;;;;;;11.80;1.65;;;;;;;-145.69;100.00;52386.97;5115521;27;20296;-80
2022/10/26 09:09:10;;;;;;;7.00;1.65;;;;;;;-145.69;100.00;52394.88;5113711;28;20202;-81
2022/10/26 09:11:58;;;;;;;6.70;1.20;;;;;;;-145.69;100.00;52428.53;5114377;28;20287;-80
2022/10/26 09:14:37;;;;;;;9.50;1.88;;;;;;;-145.69;100.00;52373.09;5139497;27;20709;-81
2022/10/26 09:17:12;;;;;;;8.93;1.58;;;;;;;-145.69;100.00;52357.25;5134284;27;20238;-83
2022/10/26 09:20:00;;;;;;;6.57;1.50;;;;;;;-145.69;100.00;52396.84;5134965;27;20224;-83
2022/10/26 09:22:33;;;;;;;7.20;1.60;;;;;;;-145.69;99.01;52381.00;5135235;27;20287;-82
2022/10/26 09:25:12;;;;;;;6.88;1.33;;;;;;;-145.69;100.00;52392.91;5135271;27;20207;-81
2022/10/26 09:27:44;;;;;;;8.95;1.70;;;;;;;-145.69;100.00;52369.13;5136439;27;20197;-81
2022/10/26 09:30:15;;;;;;;7.75;1.55;;;;;;;-145.69;100.00;52381.00;5136324;27;20253;-82
2022/10/26 09:32:45;;;;;;;10.48;1.83;;;;;;;-145.69;100.00;52369.13;5135166;27;20702;-81
2022/10/26 09:35:15;;;;;;;7.47;1.92;;;;;;;-145.69;99.19;52381.00;5135732;27;20663;-81
2022/10/26 09:37:48;;;;;;;7.10;1.77;;;;;;;-145.69;96.02;52351.31;5134860;28;20673;-81
2022/10/26 09:40:21;;;;;;;8.35;1.55;;;;;;;-145.69;96.48;52381.00;5134895;27;20224;-81
2022/10/26 09:42:55;;;;;;;5.40;1.33;;;;;;;-145.69;100.00;52377.06;5139374;27;20188;-82
2022/10/26 09:45:28;;;;;;;5.03;1.38;;;;;;;-145.69;99.94;52341.41;5154762;27;20268;-85
2022/10/26 09:47:59;;;;;;;6.03;1.60;;;;;;;-145.69;96.49;52390.91;5154689;27;20195;-83
2022/10/26 09:50:30;;;;;;;9.05;1.80;;;;;;;-145.69;94.69;52341.41;5156862;27;20442;-83
2022/10/26 09:52:57;;;;;;;10.85;1.77;;;;;;;-145.69;97.25;52377.06;5158782;27;20200;-84
2022/10/26 09:55:26;;;;;;;8.65;2.10;;;;;;;-145.69;95.90;52355.28;5159129;27;20198;-85
2022/10/26 09:57:56;;;;;;;5.28;1.48;;;;;;;-145.69;94.39;52384.97;5159032;27;20566;-85
2022/10/26 10:00:25;;;;;;;11.05;1.85;;;;;;;-145.69;97.64;52335.47;5158722;27;20311;-84
2022/10/26 10:02:53;;;;;;;4.57;1.35;;;;;;;-145.69;99.47;52349.31;5148131;27;20197;-84
2022/10/26 10:05:29;;;;;;;6.35;1.55;;;;;;;-145.69;98.98;52373.09;5140689;27;20211;-84
2022/10/26 10:08:11;;;;;;;8.32;1.77;;;;;;;-145.69;96.25;52359.22;5159240;27;20196;-84
2022/10/26 10:10:52;;;;;;;8.10;1.67;;;;;;;-145.69;98.02;52363.19;5158655;27;20196;-83
2022/10/26 10:13:21;;;;;;;11.23;2.13;;;;;;;-145.69;97.04;52353.28;5158121;27;20666;-83
2022/10/26 10:15:53;;;;;;;10.93;1.92;;;;;;;-145.69;95.20;52384.97;5158118;27;20231;-84
2022/10/26 10:18:22;;;;;;;10.48;1.88;;;;;;;-145.69;95.83;52349.31;5158473;27;20249;-84
2022/10/26 10:20:55;;;;;;;10.00;2.03;;;;;;;-145.69;94.45;52373.09;5158368;27;20236;-84
2022/10/26 10:23:27;;;;;;;8.02;1.77;;;;;;;-145.69;94.35;52365.16;5158860;27;20196;-83
2022/10/26 10:26:07;;;;;;;4.25;1.60;;;;;;;-145.69;96.69;52355.28;5158275;27;20200;-84
2022/10/26 10:28:34;;;;;;;8.10;1.88;;;;;;;-145.69;100.00;52345.38;5157491;27;20646;-83
2022/10/26 10:31:03;;;;;;;5.90;1.92;;;;;;;-145.69;95.93;52367.16;5157660;27;20193;-83
2022/10/26 10:33:38;;;;;;;8.82;1.90;;;;;;;-145.69;97.07;52345.38;5157956;27;20235;-84
2022/10/26 10:36:09;;;;;;;7.15;2.17;;;;;;;-145.69;95.46;52331.50;5157469;27;20440;-85
2022/10/26 10:38:43;;;;;;;10.93;2.28;;;;;;;-145.69;100.00;52337.44;5157497;27;20196;-83
2022/10/26 10:41:19;;;;;;;7.85;1.90;;;;;;;-145.69;97.88;52392.91;5158066;27;20199;-83
2022/10/26 10:43:48;;;;;;;8.10;1.88;;;;;;;-145.69;100.00;52365.16;5157808;27;20562;-84
2022/10/26 10:46:22;;;;;;;9.90;2.47;;;;;;;-145.69;100.00;52333.47;5157982;27;20196;-84
2022/10/26 10:48:53;;;;;;;8.00;2.10;;;;;;;-145.69;99.05;52365.16;5157627;27;20207;-85
2022/10/26 10:51:22;;;;;;;11.55;2.00;;;;;;;-145.69;99.51;52341.41;5157753;27;20218;-83
2022/10/26 10:53:50;;;;;;;8.73;1.90;;;;;;;-145.69;100.00;52351.31;5157471;27;20200;-81
2022/10/26 10:56:34;;;;;;;7.32;2.17;;;;;;;-145.69;100.00;52369.13;5155629;27;20565;-83
2022/10/26 10:59:26;;;;;;;9.55;2.00;;;;;;;-145.69;100.00;52381.00;5132740;27;20316;-84
2022/10/26 11:02:10;;;;;;;6.72;1.67;;;;;;;-145.69;100.00;52341.41;5120058;27;20199;-84
2022/10/26 11:04:52;;;;;;;6.68;1.90;;;;;;;-145.69;100.00;52347.34;5137144;27;20213;-83
2022/10/26 11:07:21;;;;;;;6.35;2.33;;;;;;;-145.69;100.00;52363.19;5136562;27;20562;-83
2022/10/26 11:09:50;;;;;;;9.55;2.05;;;;;;;-145.69;100.00;52369.13;5135146;27;20426;-82
2022/10/26 11:12:23;;;;;;;8.50;1.88;;;;;;;-145.69;100.00;52369.13;5136276;27;20201;-83
2022/10/26 11:14:56;;;;;;;8.90;1.90;;;;;;;-145.69;100.00;52347.34;5136255;27;20285;-83
2022/10/26 11:17:27;;;;;;;5.97;1.83;;;;;;;-145.69;97.23;52329.53;5136560;27;20232;-84
2022/10/26 11:19:58;;;;;;;8.95;2.30;;;;;;;-145.69;99.01;52341.41;5135593;27;20461;-83
2022/10/26 11:22:29;;;;;;;9.82;1.95;;;;;;;-145.69;98.44;52343.38;5136356;27;20193;-83